Time;durP1;ratioP1;P1;durP2;ratioP2;P2;SDS_P1;SDS_P2;PMS_P1;PMS_P2;Temp;Humidity;BMP_temperature;BMP_pressure;BME280_temperature;BME280_humidity;BME280_pressure;Samples;Min_cycle;Max_cycle;Signal;HPM_P1;HPM_P2
2023/01/26 05:30:40;;;;;;;17.88;10.18;;;6.80;86.60;;;;;;5763967;23;20040;-82
2023/01/26 05:33:09;;;;;;;16.45;7.95;;;6.90;86.80;;;;;;4914698;29;20428;-82
2023/01/26 05:35:35;;;;;;;14.57;6.88;;;6.90;87.00;;;;;;4909497;29;20087;-78
2023/01/26 05:38:01;;;;;;;16.67;8.32;;;7.00;87.00;;;;;;4911745;29;20024;-78
2023/01/26 05:40:27;;;;;;;11.50;6.50;;;7.00;87.20;;;;;;4919872;29;20030;-79
2023/01/26 05:42:53;;;;;;;15.63;7.65;;;7.00;87.30;;;;;;4920214;29;20834;-79
2023/01/26 05:45:19;;;;;;;13.75;6.95;;;7.00;87.20;;;;;;4909874;29;20535;-78
2023/01/26 05:47:47;;;;;;;15.45;7.00;;;7.00;87.20;;;;;;4908867;29;20111;-78
2023/01/26 05:50:13;;;;;;;18.13;7.63;;;7.10;87.30;;;;;;4905689;29;20104;-79
2023/01/26 05:52:39;;;;;;;16.00;7.03;;;7.10;86.90;;;;;;4890729;29;20080;-80
2023/01/26 05:55:05;;;;;;;14.07;6.47;;;7.10;87.10;;;;;;4920103;29;20474;-76
2023/01/26 05:57:31;;;;;;;12.38;6.88;;;7.10;87.20;;;;;;4899589;29;20514;-81
2023/01/26 05:59:57;;;;;;;14.55;6.72;;;7.10;87.30;;;;;;4883972;29;20032;-80
2023/01/26 06:02:23;;;;;;;18.70;7.40;;;7.20;87.10;;;;;;4897062;29;20063;-79
2023/01/26 06:04:49;;;;;;;11.80;6.20;;;7.20;87.20;;;;;;4922047;29;20415;-79
2023/01/26 06:07:15;;;;;;;14.07;7.32;;;7.30;87.10;;;;;;4912074;29;20079;-78
2023/01/26 06:09:41;;;;;;;15.68;7.70;;;7.20;87.20;;;;;;4920417;29;20038;-79
2023/01/26 06:12:18;;;;;;;11.40;7.40;;;7.30;87.30;;;;;;4920182;29;20025;-79
2023/01/26 06:14:44;;;;;;;12.77;6.15;;;7.30;87.20;;;;;;4916119;29;20032;-79
2023/01/26 06:17:10;;;;;;;14.52;7.68;;;7.30;87.30;;;;;;4919583;29;20031;-79
2023/01/26 06:19:36;;;;;;;10.13;6.05;;;7.30;87.10;;;;;;4919815;29;20745;-81
2023/01/26 06:22:03;;;;;;;16.70;6.53;;;7.30;87.10;;;;;;4908334;29;20464;-81
2023/01/26 06:24:29;;;;;;;11.57;6.03;;;7.30;87.10;;;;;;4894265;29;20504;-79
2023/01/26 06:26:54;;;;;;;9.00;5.50;;;7.30;87.10;;;;;;4917261;29;20056;-79
2023/01/26 06:29:20;;;;;;;8.52;5.68;;;7.30;86.90;;;;;;4915549;29;20056;-78
2023/01/26 06:31:46;;;;;;;8.45;5.00;;;7.30;87.10;;;;;;4902148;29;20115;-77
2023/01/26 06:34:11;;;;;;;11.02;5.72;;;7.30;87.10;;;;;;4919092;29;20115;-78
2023/01/26 06:36:37;;;;;;;12.70;6.70;;;7.30;87.20;;;;;;4918138;29;20028;-81
2023/01/26 06:39:06;;;;;;;10.65;7.15;;;7.30;87.50;;;;;;4901457;29;20031;-80
2023/01/26 06:41:32;;;;;;;10.18;5.80;;;7.30;87.30;;;;;;4921725;29;20028;-79
2023/01/26 06:43:58;;;;;;;13.55;6.90;;;7.30;87.30;;;;;;4918553;29;20043;-80
2023/01/26 06:46:23;;;;;;;10.23;6.60;;;7.30;87.30;;;;;;4918567;29;20028;-79
2023/01/26 06:48:49;;;;;;;11.40;5.88;;;7.30;87.40;;;;;;4918205;29;20554;-79
2023/01/26 06:51:18;;;;;;;14.40;7.38;;;7.30;87.50;;;;;;4915801;29;20091;-79
2023/01/26 06:53:50;;;;;;;11.65;6.40;;;7.40;87.60;;;;;;4918050;29;20028;-79
2023/01/26 06:56:16;;;;;;;15.50;7.82;;;7.30;87.50;;;;;;4899227;29;20120;-77
2023/01/26 06:58:42;;;;;;;13.50;6.95;;;7.40;87.50;;;;;;4918623;29;20063;-76
2023/01/26 07:01:33;;;;;;;15.13;8.05;;;7.30;87.50;;;;;;4917277;29;20436;-83
2023/01/26 07:03:59;;;;;;;11.55;6.47;;;7.40;87.60;;;;;;4894587;29;20072;-82
2023/01/26 07:06:25;;;;;;;13.80;7.43;;;7.40;87.70;;;;;;4918672;29;20028;-83
2023/01/26 07:08:53;;;;;;;10.20;6.13;;;7.50;87.70;;;;;;4917941;29;20042;-83
2023/01/26 07:11:19;;;;;;;13.98;6.50;;;7.40;87.60;;;;;;4913730;29;20024;-83
2023/01/26 07:13:45;;;;;;;14.63;7.50;;;7.50;87.50;;;;;;4918298;29;20035;-83
2023/01/26 07:16:13;;;;;;;13.45;7.32;;;7.50;87.60;;;;;;4919210;29;20071;-83
2023/01/26 07:18:38;;;;;;;11.75;6.38;;;7.50;87.70;;;;;;4915648;29;20056;-83
2023/01/26 07:21:08;;;;;;;14.02;7.32;;;7.50;87.60;;;;;;4916865;29;20436;-83
2023/01/26 07:23:34;;;;;;;12.77;5.53;;;7.50;87.70;;;;;;4910664;29;20067;-83
2023/01/26 07:25:59;;;;;;;14.35;7.13;;;7.50;87.80;;;;;;4900263;29;20033;-83
2023/01/26 07:28:26;;;;;;;13.43;5.60;;;7.50;87.70;;;;;;4904297;29;20036;-83
2023/01/26 07:30:55;;;;;;;10.82;5.38;;;7.50;87.80;;;;;;4899821;29;20057;-83
2023/01/26 07:33:21;;;;;;;9.32;4.22;;;7.50;87.70;;;;;;4922542;29;20190;-83
2023/01/26 07:35:57;;;;;;;11.85;4.97;;;7.50;87.70;;;;;;4935428;29;20053;-83
2023/01/26 07:38:23;;;;;;;9.57;5.40;;;7.50;87.90;;;;;;4910205;29;20025;-84
2023/01/26 07:40:49;;;;;;;7.65;4.05;;;7.50;87.90;;;;;;4917656;29;20032;-84
2023/01/26 07:43:15;;;;;;;12.75;3.88;;;7.60;87.80;;;;;;4918867;29;20056;-84
2023/01/26 07:45:50;;;;;;;5.60;3.47;;;7.60;87.60;;;;;;4918818;29;20032;-84
2023/01/26 07:48:17;;;;;;;7.30;3.80;;;7.60;87.70;;;;;;4900850;29;20115;-84
2023/01/26 07:50:44;;;;;;;11.95;4.82;;;7.60;87.70;;;;;;4914493;29;20064;-84
2023/01/26 07:53:11;;;;;;;3.80;2.83;;;7.60;87.60;;;;;;4904356;29;20028;-84
2023/01/26 07:55:37;;;;;;;7.47;3.42;;;7.60;87.70;;;;;;4901963;29;20119;-84
2023/01/26 07:58:03;;;;;;;4.18;2.95;;;7.60;87.60;;;;;;4915790;29;20056;-84
2023/01/26 08:00:29;;;;;;;5.97;3.42;;;7.60;87.60;;;;;;4916330;29;20061;-84
2023/01/26 08:02:54;;;;;;;6.22;2.95;;;7.60;87.60;;;;;;4910348;29;20025;-84
2023/01/26 08:05:20;;;;;;;3.40;2.47;;;7.60;87.70;;;;;;4912193;29;20536;-84
2023/01/26 08:07:45;;;;;;;5.13;3.30;;;7.60;87.60;;;;;;4900768;29;20033;-84
2023/01/26 08:10:13;;;;;;;6.03;4.18;;;7.70;87.60;;;;;;4918688;29;20028;-84
2023/01/26 08:12:39;;;;;;;4.47;3.17;;;7.60;87.60;;;;;;4902189;29;20154;-84
2023/01/26 08:15:05;;;;;;;4.03;2.83;;;7.60;87.60;;;;;;4903641;29;20407;-85
2023/01/26 08:17:32;;;;;;;4.68;2.80;;;7.60;87.70;;;;;;4899616;29;20025;-84
2023/01/26 08:19:58;;;;;;;4.55;3.05;;;7.60;87.60;;;;;;4899915;29;20038;-85
2023/01/26 08:22:24;;;;;;;3.42;2.63;;;7.70;87.40;;;;;;4919032;29;20550;-85
2023/01/26 08:24:50;;;;;;;6.05;2.95;;;7.70;87.40;;;;;;4921917;29;20032;-85
2023/01/26 08:27:16;;;;;;;4.65;2.15;;;7.70;87.40;;;;;;4905823;29;20048;-85
2023/01/26 08:29:42;;;;;;;5.75;2.50;;;7.70;87.30;;;;;;4900479;29;20040;-85
2023/01/26 08:32:08;;;;;;;5.82;2.90;;;7.70;87.30;;;;;;4918037;29;20044;-85
2023/01/26 08:34:34;;;;;;;6.38;3.08;;;7.70;87.20;;;;;;4904809;29;20040;-85
2023/01/26 08:37:00;;;;;;;7.55;2.47;;;7.70;87.20;;;;;;4905104;29;20032;-85
2023/01/26 08:39:26;;;;;;;2.80;2.30;;;7.70;87.20;;;;;;4904465;29;20403;-85
2023/01/26 08:41:52;;;;;;;2.65;2.30;;;7.70;87.10;;;;;;4905417;29;20024;-85
2023/01/26 08:44:17;;;;;;;2.95;2.20;;;7.80;86.90;;;;;;4905610;29;20043;-84
2023/01/26 08:46:43;;;;;;;4.55;2.63;;;7.70;86.90;;;;;;4905114;29;20043;-84
2023/01/26 08:49:09;;;;;;;5.63;2.47;;;7.70;87.00;;;;;;4894920;29;20038;-85
2023/01/26 08:51:35;;;;;;;2.45;2.05;;;7.70;87.10;;;;;;4908171;29;20035;-85
2023/01/26 08:54:01;;;;;;;10.80;3.55;;;7.80;87.00;;;;;;4910866;29;20064;-85
2023/01/26 08:56:26;;;;;;;12.88;2.85;;;7.80;86.90;;;;;;4905217;29;20024;-85
2023/01/26 08:58:52;;;;;;;6.43;3.22;;;7.80;86.70;;;;;;4915887;29;20376;-84
2023/01/26 09:01:18;;;;;;;7.43;2.78;;;7.80;86.80;;;;;;4917037;29;20142;-85
2023/01/26 09:03:44;;;;;;;6.90;2.65;;;7.80;86.70;;;;;;4902187;29;20526;-84
2023/01/26 09:06:12;;;;;;;7.05;2.95;;;7.80;86.70;;;;;;4905406;29;20028;-85
2023/01/26 09:08:38;;;;;;;5.15;2.40;;;7.80;86.60;;;;;;4906313;29;20036;-84
2023/01/26 09:11:07;;;;;;;4.15;2.50;;;7.90;86.50;;;;;;4918169;29;20028;-84
2023/01/26 09:13:33;;;;;;;7.00;3.05;;;7.90;86.50;;;;;;4912489;29;20032;-84
2023/01/26 09:16:02;;;;;;;6.05;3.42;;;8.00;86.40;;;;;;4913228;29;20132;-83
2023/01/26 09:18:28;;;;;;;6.68;2.90;;;7.90;86.30;;;;;;4904181;29;20381;-84
2023/01/26 09:20:54;;;;;;;8.88;3.67;;;7.90;86.30;;;;;;4904070;29;20119;-84
2023/01/26 09:23:20;;;;;;;7.53;3.28;;;7.90;86.30;;;;;;4903326;29;20867;-84
2023/01/26 09:25:52;;;;;;;6.28;2.63;;;7.90;86.30;;;;;;4921153;29;20025;-84
2023/01/26 09:28:17;;;;;;;5.07;2.72;;;7.90;86.30;;;;;;4921155;29;20028;-85
2023/01/26 09:30:43;;;;;;;3.40;2.72;;;8.00;86.20;;;;;;4901667;29;20145;-84
2023/01/26 09:33:09;;;;;;;2.50;2.00;;;8.10;86.10;;;;;;4914564;29;20039;-85
2023/01/26 09:35:34;;;;;;;7.78;2.40;;;8.10;85.80;;;;;;4920389;29;20024;-84
2023/01/26 09:38:00;;;;;;;9.32;3.83;;;8.20;85.80;;;;;;4920884;29;20403;-83
2023/01/26 09:40:37;;;;;;;5.80;2.20;;;8.10;85.50;;;;;;4917257;29;20135;-84
2023/01/26 09:43:35;;;;;;;6.30;2.50;;;8.10;85.60;;;;;;4902239;29;20517;-84
2023/01/26 09:46:22;;;;;;;3.97;2.00;;;8.20;85.50;;;;;;4885075;29;20060;-84
2023/01/26 09:49:18;;;;;;;3.65;2.10;;;8.20;85.20;;;;;;4912560;29;20052;-84
2023/01/26 09:51:55;;;;;;;4.00;1.88;;;8.10;85.20;;;;;;4920769;29;20024;-83
2023/01/26 09:54:34;;;;;;;7.88;2.25;;;8.00;85.30;;;;;;4920580;29;20443;-84
2023/01/26 09:57:08;;;;;;;5.88;1.98;;;8.00;85.50;;;;;;4899641;29;20032;-84
2023/01/26 09:59:43;;;;;;;4.43;2.40;;;8.00;85.50;;;;;;4909651;29;20028;-84
2023/01/26 10:02:30;;;;;;;2.83;2.05;;;8.10;85.40;;;;;;4920357;29;20063;-85
2023/01/26 10:04:59;;;;;;;2.10;1.63;;;8.10;85.40;;;;;;4919131;29;20032;-84
2023/01/26 10:07:25;;;;;;;3.75;1.77;;;8.20;85.40;;;;;;4901529;29;20064;-84
2023/01/26 10:09:52;;;;;;;4.35;2.40;;;8.20;85.20;;;;;;4911446;29;20043;-84
2023/01/26 10:12:26;;;;;;;2.85;2.05;;;8.20;85.00;;;;;;4920393;29;20036;-84
2023/01/26 10:15:07;;;;;;;4.25;1.95;;;8.30;85.00;;;;;;4902415;29;20043;-84
2023/01/26 10:17:40;;;;;;;8.32;2.33;;;8.40;84.70;;;;;;4920124;29;20047;-84
2023/01/26 10:20:25;;;;;;;6.38;2.35;;;8.60;84.40;;;;;;4918933;29;20404;-85
2023/01/26 10:23:15;;;;;;;7.20;1.70;;;8.60;84.30;;;;;;4903684;29;20521;-84
2023/01/26 10:25:43;;;;;;;8.32;2.15;;;8.60;84.00;;;;;;4900239;29;20036;-85
2023/01/26 10:28:17;;;;;;;5.22;1.98;;;8.70;83.80;;;;;;4898855;29;20045;-84
2023/01/26 10:30:45;;;;;;;5.30;2.30;;;8.70;83.70;;;;;;4901957;29;20443;-84
2023/01/26 10:33:34;;;;;;;8.50;1.80;;;8.80;83.20;;;;;;4903388;29;20043;-85
2023/01/26 10:36:06;;;;;;;5.90;2.20;;;8.70;83.30;;;;;;4918390;29;20082;-85
2023/01/26 10:38:32;;;;;;;12.07;2.50;;;8.70;83.40;;;;;;4920068;29;20060;-84
2023/01/26 10:41:03;;;;;;;8.93;2.55;;;8.60;83.30;;;;;;4920177;29;20028;-84
2023/01/26 10:43:33;;;;;;;5.05;2.20;;;8.50;83.10;;;;;;4903113;29;20032;-84
2023/01/26 10:46:01;;;;;;;7.20;2.20;;;8.50;83.40;;;;;;4910459;29;20040;-84
2023/01/26 10:48:28;;;;;;;4.05;2.33;;;8.50;83.00;;;;;;4884191;29;20040;-84
2023/01/26 10:50:54;;;;;;;7.05;2.83;;;8.50;83.20;;;;;;4884321;29;20029;-84
2023/01/26 10:53:28;;;;;;;6.40;2.20;;;8.40;83.10;;;;;;4900931;29;20060;-83
2023/01/26 10:56:15;;;;;;;7.68;1.95;;;8.40;83.30;;;;;;4901262;29;20035;-83
2023/01/26 10:58:47;;;;;;;2.80;1.98;;;8.40;83.10;;;;;;4900702;29;20088;-83
2023/01/26 11:01:17;;;;;;;7.05;1.85;;;8.40;83.00;;;;;;4886488;29;20056;-83
2023/01/26 11:04:14;;;;;;;6.68;1.63;;;8.50;83.00;;;;;;4919600;29;20020;-83
2023/01/26 11:06:40;;;;;;;8.95;2.30;;;8.50;82.80;;;;;;4933561;29;20046;-83
2023/01/26 11:09:23;;;;;;;5.15;2.30;;;8.60;82.50;;;;;;4938937;29;20028;-82
2023/01/26 11:12:04;;;;;;;7.97;1.88;;;8.70;82.60;;;;;;4919610;29;20090;-85
2023/01/26 11:14:31;;;;;;;3.05;2.03;;;8.70;82.50;;;;;;4902742;29;20039;-82
2023/01/26 11:17:21;;;;;;;8.40;1.70;;;8.80;82.20;;;;;;4913190;29;20029;-82
2023/01/26 11:19:56;;;;;;;4.40;1.35;;;8.90;82.00;;;;;;4914407;29;20020;-82
2023/01/26 11:22:43;;;;;;;3.05;1.23;;;9.00;81.90;;;;;;4916581;29;20035;-83
2023/01/26 11:25:26;;;;;;;7.78;2.55;;;9.00;81.90;;;;;;4900830;29;20040;-83
2023/01/26 11:28:04;;;;;;;8.18;2.50;;;9.00;81.50;;;;;;4900584;29;20117;-83
2023/01/26 11:30:43;;;;;;;5.63;1.80;;;9.10;81.50;;;;;;4883563;29;20033;-82
2023/01/26 11:33:37;;;;;;;6.75;2.53;;;9.10;81.40;;;;;;4912462;29;20403;-82
2023/01/26 11:36:29;;;;;;;8.10;2.20;;;9.20;81.20;;;;;;4904133;29;20127;-83
2023/01/26 11:39:15;;;;;;;8.77;1.90;;;9.20;80.90;;;;;;4889098;29;20127;-83
2023/01/26 11:41:55;;;;;;;6.72;2.08;;;9.30;80.70;;;;;;4883838;29;20036;-85
2023/01/26 11:44:37;;;;;;;6.75;1.85;;;9.40;80.30;;;;;;4913961;29;20051;-83
2023/01/26 11:47:18;;;;;;;6.93;1.70;;;9.40;79.40;;;;;;4904535;29;20639;-87
2023/01/26 11:50:15;;;;;;;4.68;1.63;;;9.30;79.40;;;;;;4883754;29;20487;-84
2023/01/26 11:53:24;;;;;;;2.72;1.35;;;9.40;79.40;;;;;;4900110;29;20033;-86
2023/01/26 11:56:04;;;;;;;8.95;2.65;;;9.50;79.10;;;;;;4866184;29;20411;-86
2023/01/26 11:58:44;;;;;;;9.77;2.75;;;9.40;78.70;;;;;;4902208;29;20032;-81
2023/01/26 12:01:20;;;;;;;7.95;2.00;;;9.50;78.60;;;;;;4904263;29;20032;-84
2023/01/26 12:03:49;;;;;;;5.97;2.35;;;9.50;78.50;;;;;;4904111;29;20054;-83
2023/01/26 12:06:24;;;;;;;9.95;2.25;;;9.70;78.60;;;;;;4904070;29;20040;-83
2023/01/26 12:09:17;;;;;;;6.57;1.77;;;9.70;78.30;;;;;;4904153;29;20032;-83
2023/01/26 12:12:18;;;;;;;7.93;1.98;;;9.70;77.80;;;;;;4888129;29;20037;-83
2023/01/26 12:15:05;;;;;;;5.65;2.10;;;9.80;77.20;;;;;;4871877;29;20040;-88
2023/01/26 12:17:58;;;;;;;9.82;2.70;;;9.70;77.40;;;;;;4903852;29;20060;-80
2023/01/26 12:20:29;;;;;;;7.50;1.70;;;9.60;77.20;;;;;;4903690;29;20033;-79
2023/01/26 12:22:58;;;;;;;5.97;1.48;;;9.50;76.60;;;;;;4903657;29;20039;-77
2023/01/26 12:25:40;;;;;;;7.13;2.03;;;9.50;76.80;;;;;;4903605;29;20021;-78
2023/01/26 12:28:23;;;;;;;10.88;2.75;;;9.60;77.30;;;;;;4903575;29;20088;-79
2023/01/26 12:30:49;;;;;;;6.55;1.80;;;9.60;76.50;;;;;;4900902;29;20135;-77
2023/01/26 12:33:15;;;;;;;13.55;2.17;;;9.60;76.60;;;;;;4903687;29;20127;-80
2023/01/26 12:36:23;;;;;;;4.40;1.67;;;9.60;76.30;;;;;;4903525;29;20031;-78
2023/01/26 12:39:07;;;;;;;6.05;2.10;;;9.60;76.10;;;;;;4918033;29;20032;-79
2023/01/26 12:41:59;;;;;;;5.95;1.90;;;9.50;76.40;;;;;;4922560;29;20028;-84
2023/01/26 12:44:41;;;;;;;9.43;1.90;;;9.50;75.90;;;;;;4897774;29;20044;-86
2023/01/26 12:47:30;;;;;;;9.95;2.47;;;9.50;75.90;;;;;;4904815;29;20036;-85
2023/01/26 12:50:11;;;;;;;4.47;1.60;;;9.60;75.50;;;;;;4878031;29;20385;-82
2023/01/26 12:52:42;;;;;;;11.55;2.03;;;9.70;75.60;;;;;;4903151;29;20079;-79
2023/01/26 12:55:33;;;;;;;12.82;2.70;;;9.70;75.10;;;;;;4903898;29;20447;-79
2023/01/26 12:58:09;;;;;;;6.22;1.70;;;9.70;74.20;;;;;;4903251;29;20067;-91
2023/01/26 13:00:37;;;;;;;2.90;1.27;;;9.70;75.10;;;;;;4903017;29;20396;-76
2023/01/26 13:03:27;;;;;;;4.80;1.92;;;9.70;74.90;;;;;;4902995;29;20033;-77
2023/01/26 13:06:01;;;;;;;4.55;1.83;;;9.70;74.40;;;;;;4903096;29;20100;-79
2023/01/26 13:08:30;;;;;;;7.55;1.63;;;9.80;74.80;;;;;;4883194;29;20531;-79
2023/01/26 13:10:57;;;;;;;12.27;2.42;;;9.70;74.30;;;;;;4922854;29;20090;-80
2023/01/26 13:13:28;;;;;;;5.07;1.88;;;9.70;74.30;;;;;;4919425;29;20403;-79
2023/01/26 13:16:15;;;;;;;3.47;1.63;;;9.80;75.00;;;;;;4900586;29;20035;-79
2023/01/26 13:18:51;;;;;;;5.03;2.33;;;9.80;74.60;;;;;;4902881;29;20509;-80
2023/01/26 13:21:37;;;;;;;8.13;2.45;;;9.80;74.70;;;;;;4885962;29;20031;-79
2023/01/26 13:24:15;;;;;;;14.00;3.63;;;9.80;74.50;;;;;;4902624;29;20412;-80
2023/01/26 13:26:47;;;;;;;8.20;1.90;;;9.70;74.60;;;;;;4902664;29;20487;-79
2023/01/26 13:29:27;;;;;;;9.48;1.75;;;9.70;75.00;;;;;;4902400;29;20088;-79
2023/01/26 13:31:55;;;;;;;6.72;1.98;;;9.70;75.20;;;;;;4902419;29;20567;-79
2023/01/26 13:34:27;;;;;;;8.02;2.08;;;9.70;75.20;;;;;;4902326;29;20120;-80
2023/01/26 13:36:59;;;;;;;11.85;3.22;;;9.70;75.40;;;;;;4885472;29;20507;-80
2023/01/26 13:39:34;;;;;;;3.65;1.42;;;9.60;75.30;;;;;;4906124;29;20038;-79
2023/01/26 13:42:02;;;;;;;5.50;1.98;;;9.60;75.10;;;;;;4921307;29;20031;-79
2023/01/26 13:44:48;;;;;;;11.35;1.90;;;9.50;75.30;;;;;;4921390;29;20036;-82
2023/01/26 13:47:25;;;;;;;10.88;2.78;;;9.50;75.20;;;;;;4900119;29;20037;-80
2023/01/26 13:49:51;;;;;;;7.32;1.95;;;9.50;75.70;;;;;;4901961;29;20083;-79
2023/01/26 13:52:25;;;;;;;14.35;2.33;;;9.40;75.00;;;;;;4902448;29;20028;-79
2023/01/26 13:54:57;;;;;;;8.55;1.90;;;9.50;75.20;;;;;;4913327;29;20448;-79
2023/01/26 13:57:29;;;;;;;4.20;1.65;;;9.50;75.30;;;;;;4900774;29;20020;-80
2023/01/26 13:59:59;;;;;;;8.55;1.80;;;9.50;74.80;;;;;;4902179;29;20060;-79
2023/01/26 14:02:32;;;;;;;5.13;2.08;;;9.60;75.00;;;;;;4901984;29;20029;-80
2023/01/26 14:04:59;;;;;;;3.30;1.60;;;9.60;74.60;;;;;;4901731;29;20084;-79
2023/01/26 14:07:38;;;;;;;6.78;2.15;;;9.60;74.70;;;;;;4898823;29;20040;-77
2023/01/26 14:10:05;;;;;;;3.35;1.50;;;9.60;74.50;;;;;;4911537;29;20096;-77
2023/01/26 14:12:56;;;;;;;7.13;1.92;;;9.50;73.90;;;;;;4920372;29;20020;-76
2023/01/26 14:15:23;;;;;;;7.03;2.15;;;9.50;74.00;;;;;;4911068;29;20074;-77
2023/01/26 14:18:00;;;;;;;4.70;1.85;;;9.50;73.80;;;;;;4920486;29;20076;-76
2023/01/26 14:20:35;;;;;;;6.35;1.50;;;9.50;74.30;;;;;;4906178;29;20031;-76
2023/01/26 14:23:11;;;;;;;8.20;1.70;;;9.50;74.30;;;;;;4901368;29;20016;-76
2023/01/26 14:25:38;;;;;;;8.25;2.10;;;9.50;74.20;;;;;;4901428;29;20036;-76
2023/01/26 14:28:04;;;;;;;7.97;1.65;;;9.40;74.10;;;;;;4903394;29;20036;-77
2023/01/26 14:30:32;;;;;;;4.40;1.35;;;9.40;73.60;;;;;;4902603;29;20040;-77
2023/01/26 14:33:01;;;;;;;10.98;2.45;;;9.30;74.00;;;;;;4905912;29;20028;-76
2023/01/26 14:35:27;;;;;;;7.13;1.83;;;9.40;74.00;;;;;;4901766;29;20087;-79
2023/01/26 14:38:10;;;;;;;11.15;1.90;;;9.40;73.50;;;;;;4924184;29;20072;-90
2023/01/26 14:40:42;;;;;;;4.03;1.30;;;9.40;73.50;;;;;;4925274;29;20032;-80
2023/01/26 14:43:09;;;;;;;5.82;1.80;;;9.30;73.50;;;;;;4920202;29;20027;-80
2023/01/26 14:45:42;;;;;;;5.10;1.67;;;9.30;73.30;;;;;;4910218;29;20033;-81
2023/01/26 14:48:12;;;;;;;5.78;1.50;;;9.30;73.50;;;;;;4920735;29;20028;-81
2023/01/26 14:50:38;;;;;;;3.80;1.35;;;9.30;73.80;;;;;;4906154;29;20493;-80
2023/01/26 14:53:11;;;;;;;2.45;1.17;;;9.30;73.50;;;;;;4915941;29;20427;-80
2023/01/26 14:55:37;;;;;;;9.18;1.83;;;9.30;73.60;;;;;;4915994;29;20039;-80
2023/01/26 14:58:14;;;;;;;5.97;1.60;;;9.30;73.70;;;;;;4900280;29;20032;-79
2023/01/26 15:00:40;;;;;;;4.93;1.30;;;9.30;73.50;;;;;;4916257;29;20439;-80
2023/01/26 15:03:27;;;;;;;8.48;1.73;;;9.20;73.40;;;;;;4918410;29;20036;-80
2023/01/26 15:06:17;;;;;;;5.20;1.48;;;9.20;73.50;;;;;;4905690;29;20036;-80
2023/01/26 15:08:54;;;;;;;7.38;1.92;;;9.20;73.60;;;;;;4917231;29;20031;-79
2023/01/26 15:14:35;;;;;;;4.47;1.45;;;9.20;73.60;;;;;;4915144;29;20095;-80
2023/01/26 15:17:00;;;;;;;8.30;1.77;;;9.20;73.70;;;;;;4916279;29;20040;-80
2023/01/26 15:19:31;;;;;;;4.78;1.40;;;9.20;73.50;;;;;;4917826;29;20099;-80
2023/01/26 15:21:57;;;;;;;6.45;1.50;;;9.20;73.50;;;;;;4913795;29;20113;-79
2023/01/26 15:24:23;;;;;;;4.38;2.85;;;9.30;73.60;;;;;;4917058;29;20440;-79
2023/01/26 15:26:50;;;;;;;4.80;1.92;;;9.30;73.30;;;;;;4916380;29;20384;-80
2023/01/26 15:29:29;;;;;;;7.47;2.58;;;9.30;72.80;;;;;;4913860;29;20519;-79
2023/01/26 15:31:56;;;;;;;3.23;1.20;;;9.30;72.80;;;;;;4915461;29;20056;-79
2023/01/26 15:34:28;;;;;;;5.85;2.00;;;9.20;72.90;;;;;;4915977;29;20358;-80
2023/01/26 15:36:56;;;;;;;9.38;2.13;;;9.30;72.80;;;;;;4917641;29;20028;-79
2023/01/26 15:39:22;;;;;;;4.57;1.30;;;9.20;72.90;;;;;;4916920;29;20096;-80
2023/01/26 15:42:12;;;;;;;2.08;1.40;;;9.20;72.70;;;;;;4916023;29;20052;-79
2023/01/26 15:44:37;;;;;;;6.43;1.52;;;9.20;72.80;;;;;;4919959;29;20043;-80
2023/01/26 15:47:04;;;;;;;6.88;2.45;;;9.20;72.80;;;;;;4915300;29;20040;-79
2023/01/26 15:49:29;;;;;;;5.68;2.10;;;9.20;72.30;;;;;;4917929;29;20047;-83
2023/01/26 15:51:55;;;;;;;5.47;1.52;;;9.20;72.80;;;;;;4899486;29;20030;-79
2023/01/26 15:54:21;;;;;;;4.38;1.48;;;9.20;72.80;;;;;;4917484;29;20040;-78
2023/01/26 15:56:46;;;;;;;3.33;1.15;;;9.20;72.40;;;;;;4915872;29;20021;-78
2023/01/26 15:59:12;;;;;;;10.48;2.13;;;9.20;72.30;;;;;;4918289;29;20028;-78
2023/01/26 16:01:38;;;;;;;4.53;2.05;;;9.10;72.50;;;;;;4899774;29;20037;-79
2023/01/26 16:04:04;;;;;;;9.35;1.65;;;9.10;72.70;;;;;;4917647;29;20103;-79
2023/01/26 16:06:31;;;;;;;7.47;1.88;;;9.10;72.70;;;;;;4908112;29;20032;-79
2023/01/26 16:08:57;;;;;;;6.38;1.95;;;9.10;72.50;;;;;;4916603;29;20051;-79
2023/01/26 16:11:33;;;;;;;6.75;2.25;;;9.10;72.70;;;;;;4910353;29;20033;-80
2023/01/26 16:14:00;;;;;;;5.00;1.63;;;9.10;72.80;;;;;;4918052;29;20040;-79
2023/01/26 16:16:30;;;;;;;7.72;2.00;;;9.00;73.00;;;;;;4911107;29;20031;-79
2023/01/26 16:18:57;;;;;;;4.78;2.00;;;9.00;72.90;;;;;;4916033;29;20130;-79
2023/01/26 16:21:27;;;;;;;6.90;2.83;;;9.00;73.10;;;;;;4912653;29;20033;-80
2023/01/26 16:23:55;;;;;;;5.15;1.85;;;9.00;72.90;;;;;;4915287;29;20551;-79
2023/01/26 16:26:20;;;;;;;8.40;1.60;;;9.00;73.20;;;;;;4904048;29;20033;-79
2023/01/26 16:28:46;;;;;;;10.57;2.00;;;9.00;73.10;;;;;;4914133;29;20076;-79
2023/01/26 16:31:18;;;;;;;6.70;1.88;;;9.00;73.20;;;;;;4918713;29;20056;-79
2023/01/26 16:33:45;;;;;;;4.45;2.55;;;8.90;72.80;;;;;;4918522;29;20491;-79
2023/01/26 16:36:12;;;;;;;5.38;2.20;;;8.80;73.30;;;;;;4888894;29;20582;-79
2023/01/26 16:38:38;;;;;;;3.38;1.35;;;8.80;73.30;;;;;;4918477;29;20031;-79
2023/01/26 16:41:05;;;;;;;9.88;1.92;;;8.80;73.50;;;;;;4918668;29;20028;-79
2023/01/26 16:43:31;;;;;;;6.32;1.60;;;8.80;73.50;;;;;;4918490;29;20406;-79
2023/01/26 16:45:57;;;;;;;6.25;2.03;;;8.80;73.30;;;;;;4911864;29;20447;-79
2023/01/26 16:48:23;;;;;;;4.38;1.77;;;8.80;73.40;;;;;;4921841;29;20087;-79
2023/01/26 16:50:52;;;;;;;4.43;1.92;;;8.90;73.50;;;;;;4916193;29;20082;-79
2023/01/26 16:53:29;;;;;;;5.72;2.40;;;8.90;73.50;;;;;;4912023;29;20119;-79
2023/01/26 16:55:55;;;;;;;6.65;1.70;;;8.80;73.20;;;;;;4903057;29;20032;-79
2023/01/26 16:58:25;;;;;;;8.20;2.03;;;8.70;73.50;;;;;;4912353;29;20566;-83
2023/01/26 17:00:51;;;;;;;6.70;2.10;;;8.70;73.60;;;;;;4889560;29;20078;-79
2023/01/26 17:03:16;;;;;;;2.63;1.63;;;8.70;73.60;;;;;;4911121;29;20024;-77
2023/01/26 17:05:42;;;;;;;2.90;1.75;;;8.60;73.70;;;;;;4909560;29;20575;-77
2023/01/26 17:08:08;;;;;;;4.50;2.05;;;8.50;74.00;;;;;;4919598;29;20032;-78
2023/01/26 17:10:34;;;;;;;3.42;1.75;;;8.50;73.80;;;;;;4920983;29;20032;-78
2023/01/26 17:13:00;;;;;;;7.32;2.45;;;8.40;74.10;;;;;;4917779;29;20570;-80
2023/01/26 17:15:28;;;;;;;5.47;2.42;;;8.30;74.30;;;;;;4903585;29;20106;-80
2023/01/26 17:17:53;;;;;;;2.20;1.48;;;8.30;74.40;;;;;;4931734;29;20395;-78
2023/01/26 17:20:19;;;;;;;5.40;2.50;;;8.30;74.80;;;;;;4899625;29;20024;-79
2023/01/26 17:22:45;;;;;;;3.95;2.22;;;8.20;74.80;;;;;;4895017;29;20024;-77
2023/01/26 17:25:11;;;;;;;5.32;1.80;;;8.20;74.80;;;;;;4902864;29;20047;-77
2023/01/26 17:27:37;;;;;;;5.88;2.78;;;8.30;74.90;;;;;;4916250;29;20032;-78
2023/01/26 17:30:03;;;;;;;10.38;2.15;;;8.30;74.80;;;;;;4916792;29;20477;-78
2023/01/26 17:32:29;;;;;;;7.38;2.03;;;8.20;74.70;;;;;;4917927;29;20107;-77
2023/01/26 17:34:55;;;;;;;3.58;1.50;;;8.20;74.90;;;;;;4920025;29;20451;-79
2023/01/26 17:37:24;;;;;;;4.30;2.00;;;8.20;75.20;;;;;;4915879;29;20388;-76
2023/01/26 17:39:53;;;;;;;6.38;2.55;;;8.10;75.40;;;;;;4917333;29;20510;-76
2023/01/26 17:42:18;;;;;;;9.10;2.00;;;8.10;75.40;;;;;;4910843;29;20024;-76
2023/01/26 17:44:44;;;;;;;7.57;2.70;;;8.00;75.40;;;;;;4913645;29;20087;-76
2023/01/26 17:47:10;;;;;;;10.68;1.95;;;8.00;75.30;;;;;;4903349;29;20048;-77
2023/01/26 17:49:37;;;;;;;6.50;2.28;;;8.00;75.40;;;;;;4903153;29;20037;-76
2023/01/26 17:52:04;;;;;;;5.82;2.53;;;8.00;75.20;;;;;;4903900;29;20035;-76
2023/01/26 17:54:30;;;;;;;5.65;2.10;;;8.00;75.40;;;;;;4902884;29;20028;-76
2023/01/26 17:56:56;;;;;;;5.45;1.67;;;8.00;75.40;;;;;;4885228;29;20441;-76
2023/01/26 17:59:24;;;;;;;9.82;2.45;;;8.00;75.50;;;;;;4905407;29;20484;-76
2023/01/26 18:01:50;;;;;;;8.85;2.22;;;8.00;75.50;;;;;;4903668;29;20028;-76
2023/01/26 18:04:16;;;;;;;6.03;2.28;;;8.10;75.50;;;;;;4902217;29;20440;-76
2023/01/26 18:06:42;;;;;;;5.32;1.92;;;8.00;75.40;;;;;;4902647;29;20040;-76
2023/01/26 18:09:08;;;;;;;7.22;2.90;;;8.10;75.60;;;;;;4904957;29;20617;-76
2023/01/26 18:11:34;;;;;;;4.68;2.47;;;8.10;75.60;;;;;;4901923;29;20123;-76
2023/01/26 18:14:02;;;;;;;7.20;2.83;;;8.00;75.50;;;;;;4905387;29;20056;-76
2023/01/26 18:16:28;;;;;;;3.50;2.30;;;8.10;75.80;;;;;;4901064;29;20021;-76
2023/01/26 18:18:59;;;;;;;3.67;2.55;;;8.00;76.00;;;;;;4901727;29;20133;-76
2023/01/26 18:21:27;;;;;;;3.85;2.53;;;8.00;76.00;;;;;;4907408;29;20092;-76
2023/01/26 18:23:56;;;;;;;7.22;2.63;;;8.00;75.80;;;;;;4919414;29;20107;-79
2023/01/26 18:26:24;;;;;;;9.30;3.00;;;8.00;76.10;;;;;;4916159;29;20028;-77
2023/01/26 18:28:50;;;;;;;4.38;2.35;;;8.00;76.00;;;;;;4894438;29;20047;-74
2023/01/26 18:31:25;;;;;;;7.13;2.88;;;7.90;76.20;;;;;;4891923;29;20075;-77
2023/01/26 18:33:52;;;;;;;6.28;2.45;;;7.90;76.40;;;;;;4895883;29;20498;-79
2023/01/26 18:36:27;;;;;;;2.83;2.53;;;7.90;76.50;;;;;;4908651;29;20032;-80
2023/01/26 18:39:04;;;;;;;7.07;2.33;;;7.80;76.60;;;;;;4906085;29;20032;-78
2023/01/26 18:41:30;;;;;;;4.88;2.53;;;7.80;76.60;;;;;;4904473;29;20021;-78
2023/01/26 18:43:58;;;;;;;9.07;3.63;;;7.80;76.90;;;;;;4902701;29;20028;-79
2023/01/26 18:46:24;;;;;;;7.82;3.22;;;7.70;77.20;;;;;;4889958;29;20033;-77
2023/01/26 18:48:59;;;;;;;4.43;2.63;;;7.70;77.60;;;;;;4905339;29;20032;-77